Time;durP1;ratioP1;P1;durP2;ratioP2;P2;SDS_P1;SDS_P2;PMS_P1;PMS_P2;Temp;Humidity;BMP_temperature;BMP_pressure;BME280_temperature;BME280_humidity;BME280_pressure;Samples;Min_cycle;Max_cycle;Signal;HPM_P1;HPM_P2
2021/06/26 00:00:52;;;;;;;12.55;6.75;;;;;;;25.57;60.24;99808.31;1784363;79;20995;-58
2021/06/26 00:03:26;;;;;;;10.93;7.28;;;;;;;25.55;60.20;99802.37;1790130;79;21029;-58
2021/06/26 00:05:54;;;;;;;12.98;7.85;;;;;;;25.50;60.34;99801.42;1788320;79;20936;-57
2021/06/26 00:08:23;;;;;;;14.38;7.17;;;;;;;25.47;60.51;99791.66;1791100;79;21183;-57
2021/06/26 00:10:51;;;;;;;14.03;6.60;;;;;;;25.44;60.77;99791.78;1789898;79;20978;-57
2021/06/26 00:13:18;;;;;;;9.15;6.37;;;;;;;25.43;60.79;99785.25;1787955;79;21045;-57
2021/06/26 00:15:46;;;;;;;11.70;5.97;;;;;;;25.42;60.96;99787.75;1786943;79;21501;-57
2021/06/26 00:18:15;;;;;;;11.12;6.20;;;;;;;25.40;61.11;99792.75;1789226;79;21042;-57
2021/06/26 00:20:43;;;;;;;10.55;7.78;;;;;;;25.39;61.22;99790.58;1786328;79;21163;-57
2021/06/26 00:23:10;;;;;;;9.87;7.33;;;;;;;25.36;61.35;99783.81;1784717;79;20907;-57
2021/06/26 00:25:38;;;;;;;13.08;7.10;;;;;;;25.36;61.35;99783.81;1787145;79;21345;-57
2021/06/26 00:28:05;;;;;;;17.03;7.23;;;;;;;25.35;61.43;99788.27;1788394;79;20861;-57
2021/06/26 00:30:32;;;;;;;14.95;7.58;;;;;;;25.32;61.45;99788.38;1787301;79;21256;-57
2021/06/26 00:32:59;;;;;;;13.58;6.75;;;;;;;25.32;61.66;99785.64;1784781;79;21230;-57
2021/06/26 00:35:26;;;;;;;17.32;6.72;;;;;;;25.30;61.67;99782.41;1790782;79;20974;-57
2021/06/26 00:37:55;;;;;;;12.13;6.95;;;;;;;25.29;61.81;99781.34;1786779;79;20948;-57
2021/06/26 00:40:22;;;;;;;22.98;7.40;;;;;;;25.27;61.78;99785.78;1785673;79;21017;-57
2021/06/26 00:42:49;;;;;;;18.82;7.12;;;;;;;25.26;61.93;99784.74;1785826;79;20984;-57
2021/06/26 00:45:17;;;;;;;12.20;6.80;;;;;;;25.23;62.09;99786.78;1787123;79;21196;-57
2021/06/26 00:47:44;;;;;;;8.43;6.33;;;;;;;25.20;62.24;99786.87;1788359;79;20865;-57
2021/06/26 00:50:24;;;;;;;13.30;6.85;;;;;;;25.19;62.31;99787.45;1787337;79;21004;-57
2021/06/26 00:52:51;;;;;;;12.68;6.25;;;;;;;25.16;62.45;99785.37;1786789;79;21129;-57
2021/06/26 00:55:19;;;;;;;15.90;6.92;;;;;;;25.13;62.55;99790.69;1778793;79;21477;-57
2021/06/26 00:57:57;;;;;;;14.15;7.00;;;;;;;25.11;62.58;99793.77;1768501;79;21997;-57
2021/06/26 01:00:21;;;;;;;12.00;6.62;;;;;;;25.11;63.05;99794.34;1763845;80;21407;-57
2021/06/26 01:02:50;;;;;;;14.35;6.40;;;;;;;25.10;63.32;99794.09;1767037;80;21402;-57
2021/06/26 01:05:17;;;;;;;16.15;6.78;;;;;;;25.11;63.49;99794.34;1764781;80;20979;-57
2021/06/26 01:07:45;;;;;;;12.50;6.37;;;;;;;25.13;63.49;99794.80;1762330;80;22004;-57
2021/06/26 01:10:12;;;;;;;10.30;6.17;;;;;;;25.17;63.49;99801.23;1763518;79;21164;-57
2021/06/26 01:12:40;;;;;;;12.65;7.53;;;;;;;25.17;63.56;99795.76;1765626;80;21556;-57
2021/06/26 01:15:10;;;;;;;16.07;6.85;;;;;;;25.11;63.69;99790.23;1763835;79;20912;-57
2021/06/26 01:17:38;;;;;;;13.80;6.33;;;;;;;25.03;63.93;99795.17;1765224;80;20951;-57
2021/06/26 01:20:09;;;;;;;13.40;7.28;;;;;;;24.98;64.09;99794.25;1765086;80;21086;-57
2021/06/26 01:22:55;;;;;;;12.23;7.45;;;;;;;24.98;64.27;99792.05;1762463;80;21137;-57
2021/06/26 01:25:19;;;;;;;14.70;8.38;;;;;;;25.01;64.33;99790.84;1764045;80;21990;-58
2021/06/26 01:27:46;;;;;;;16.65;8.00;;;;;;;25.07;64.37;99784.58;1761733;80;20948;-58
2021/06/26 01:30:16;;;;;;;19.57;7.30;;;;;;;25.11;64.14;99787.48;1764571;80;20908;-58
2021/06/26 01:32:43;;;;;;;9.18;7.08;;;;;;;25.14;64.08;99790.94;1767641;79;21043;-58
2021/06/26 01:35:10;;;;;;;9.85;7.22;;;;;;;25.17;63.85;99804.77;1764889;80;21533;-57
2021/06/26 01:37:41;;;;;;;10.53;7.03;;;;;;;25.19;63.70;99801.16;1763888;80;21002;-57
2021/06/26 01:40:11;;;;;;;11.95;7.10;;;;;;;25.19;63.52;99806.64;1762590;79;21061;-57
2021/06/26 01:42:38;;;;;;;11.85;6.92;;;;;;;25.18;63.51;99817.94;1762036;79;20987;-57
2021/06/26 01:45:07;;;;;;;13.45;6.65;;;;;;;25.16;63.52;99824.30;1764269;79;20951;-58
2021/06/26 01:47:34;;;;;;;8.65;6.72;;;;;;;25.16;63.35;99822.39;1765069;80;22285;-57
2021/06/26 01:50:02;;;;;;;15.45;6.33;;;;;;;25.18;63.05;99815.20;1764047;80;20869;-57
2021/06/26 01:52:29;;;;;;;11.83;7.25;;;;;;;25.15;62.78;99805.69;1765689;79;20928;-57
2021/06/26 01:54:56;;;;;;;9.23;6.78;;;;;;;25.12;62.68;99824.17;1763953;79;20939;-57
2021/06/26 01:57:23;;;;;;;15.98;7.67;;;;;;;25.10;62.64;99833.30;1790460;79;20912;-57
2021/06/26 01:59:51;;;;;;;9.48;7.08;;;;;;;25.08;62.63;99819.67;1786609;79;21097;-57
2021/06/26 02:02:18;;;;;;;12.50;7.60;;;;;;;25.05;62.55;99814.86;1787131;79;20979;-57
2021/06/26 02:04:45;;;;;;;16.05;7.00;;;;;;;25.03;62.56;99826.70;1786433;79;21276;-58
2021/06/26 02:07:13;;;;;;;12.63;7.00;;;;;;;25.00;62.64;99837.78;1786128;79;22040;-57
2021/06/26 02:09:41;;;;;;;10.05;7.70;;;;;;;24.98;62.58;99825.77;1785912;79;20967;-58
2021/06/26 02:12:09;;;;;;;10.50;6.58;;;;;;;24.94;62.56;99822.07;1785111;79;21170;-58
2021/06/26 02:14:36;;;;;;;13.03;6.55;;;;;;;24.89;62.58;99815.95;1787132;79;21552;-58
2021/06/26 02:17:04;;;;;;;9.43;6.70;;;;;;;24.86;62.59;99814.67;1785940;79;20919;-58
2021/06/26 02:19:31;;;;;;;15.55;7.10;;;;;;;24.83;62.56;99820.81;1788874;79;21561;-58
2021/06/26 02:21:58;;;;;;;12.10;6.37;;;;;;;24.80;62.57;99825.00;1785834;79;21004;-58
2021/06/26 02:24:25;;;;;;;9.40;6.85;;;;;;;24.81;62.61;99825.83;1791813;79;21951;-58
2021/06/26 02:26:53;;;;;;;11.10;6.90;;;;;;;24.80;62.65;99822.27;1753174;79;20971;-58
2021/06/26 02:29:21;;;;;;;14.18;6.80;;;;;;;24.82;62.66;99820.02;1787353;79;20959;-57
2021/06/26 02:31:48;;;;;;;12.05;6.70;;;;;;;24.82;62.53;99821.93;1787841;79;21035;-57
2021/06/26 02:34:15;;;;;;;10.50;7.08;;;;;;;24.82;62.54;99820.56;1788753;79;21097;-57
2021/06/26 02:36:42;;;;;;;8.60;6.10;;;;;;;24.86;62.53;99822.09;1788124;79;21182;-58
2021/06/26 02:39:09;;;;;;;16.00;7.05;;;;;;;24.87;62.44;99825.05;1787509;79;21837;-58
2021/06/26 02:41:36;;;;;;;7.10;6.35;;;;;;;24.84;62.52;99823.80;1787771;79;20924;-58
2021/06/26 02:44:04;;;;;;;12.23;5.90;;;;;;;24.87;62.70;99827.80;1787485;79;20963;-58
2021/06/26 02:46:32;;;;;;;13.00;6.87;;;;;;;24.91;62.58;99824.64;1786967;79;21113;-58
2021/06/26 02:48:59;;;;;;;8.05;6.15;;;;;;;24.90;62.60;99817.58;1786129;79;21131;-58
2021/06/26 02:51:27;;;;;;;11.55;6.70;;;;;;;24.93;62.76;99814.17;1781586;79;38231;-58
2021/06/26 02:53:54;;;;;;;8.93;5.58;;;;;;;24.96;62.60;99809.41;1787034;79;21454;-57
2021/06/26 02:56:22;;;;;;;9.60;5.60;;;;;;;24.94;62.50;99813.02;1783382;79;20927;-56
2021/06/26 02:58:49;;;;;;;19.60;6.92;;;;;;;24.87;62.62;99814.09;1797616;79;20976;-57
2021/06/26 03:01:16;;;;;;;11.25;7.30;;;;;;;24.81;62.95;99815.66;1798619;79;21071;-57
2021/06/26 03:03:42;;;;;;;10.70;6.28;;;;;;;24.80;63.30;99803.08;1797977;79;21548;-57
2021/06/26 03:06:09;;;;;;;12.75;6.25;;;;;;;24.78;63.40;99807.30;1795453;79;20935;-57
2021/06/26 03:08:37;;;;;;;13.20;6.85;;;;;;;24.78;63.57;99806.72;1797944;79;21516;-58
2021/06/26 03:11:04;;;;;;;10.80;5.83;;;;;;;24.80;63.69;99806.39;1797821;79;20880;-57
2021/06/26 03:13:31;;;;;;;13.18;6.37;;;;;;;24.82;63.66;99799.45;1798275;79;21163;-57
2021/06/26 03:15:58;;;;;;;12.65;6.50;;;;;;;24.88;63.44;99804.75;1795888;79;21060;-57
2021/06/26 03:18:27;;;;;;;7.87;5.83;;;;;;;24.91;63.29;99808.20;1799277;79;21018;-57
2021/06/26 03:20:55;;;;;;;13.20;6.45;;;;;;;24.99;63.02;99803.27;1795716;79;20943;-58
2021/06/26 03:23:22;;;;;;;16.85;6.90;;;;;;;25.06;62.54;99811.78;1797007;79;20997;-58
2021/06/26 03:25:49;;;;;;;7.95;6.28;;;;;;;25.12;62.44;99809.66;1797675;79;21110;-58
2021/06/26 03:28:16;;;;;;;7.55;5.85;;;;;;;25.21;62.01;99789.06;1794994;79;20962;-58
2021/06/26 03:30:43;;;;;;;8.80;6.08;;;;;;;25.28;61.71;99793.43;1761117;79;20978;-58
2021/06/26 03:33:10;;;;;;;19.45;6.08;;;;;;;25.36;61.42;99793.41;1798095;79;20943;-58
2021/06/26 03:35:37;;;;;;;9.55;6.08;;;;;;;25.45;61.10;99796.11;1798157;79;21070;-58
2021/06/26 03:38:05;;;;;;;9.58;6.33;;;;;;;25.65;60.82;99788.26;1797128;79;21106;-58
2021/06/26 03:40:32;;;;;;;10.93;6.10;;;;;;;26.16;59.83;99787.63;1796052;79;20915;-58
2021/06/26 03:42:59;;;;;;;10.00;6.50;;;;;;;27.01;57.72;99784.63;1796474;79;20896;-58
2021/06/26 03:45:27;;;;;;;12.60;6.33;;;;;;;27.99;55.55;99787.87;1799255;79;21003;-58
2021/06/26 03:47:54;;;;;;;10.18;5.90;;;;;;;28.99;52.88;99778.70;1799563;79;21533;-57
2021/06/26 03:50:21;;;;;;;7.35;5.78;;;;;;;29.85;50.34;99781.84;1800753;79;21914;-57
2021/06/26 03:52:48;;;;;;;11.90;6.10;;;;;;;30.51;47.90;99781.97;1797260;79;21461;-57
2021/06/26 03:55:15;;;;;;;14.80;6.12;;;;;;;31.02;46.84;99783.05;1800121;79;21422;-57
2021/06/26 03:57:42;;;;;;;10.32;5.85;;;;;;;31.49;45.12;99787.87;1765299;80;21003;-57
2021/06/26 04:00:12;;;;;;;13.05;6.05;;;;;;;31.89;44.76;99783.70;1764878;80;20915;-57
2021/06/26 04:02:38;;;;;;;9.83;5.78;;;;;;;32.37;43.63;99784.44;1768098;80;21517;-58
2021/06/26 04:05:07;;;;;;;13.62;6.03;;;;;;;32.65;42.48;99782.52;1763550;80;21023;-58
2021/06/26 04:07:34;;;;;;;11.70;6.22;;;;;;;32.72;41.95;99781.84;1762530;79;21477;-58
2021/06/26 04:10:01;;;;;;;11.45;6.05;;;;;;;32.66;42.14;99786.11;1756122;80;20885;-57
2021/06/26 04:12:28;;;;;;;10.63;5.90;;;;;;;32.67;41.79;99782.17;1764634;79;20932;-58
2021/06/26 04:14:55;;;;;;;15.65;6.20;;;;;;;32.64;42.15;99781.52;1755278;80;21992;-58
2021/06/26 04:17:22;;;;;;;12.90;6.13;;;;;;;32.64;42.03;99774.02;1766067;80;20900;-57
2021/06/26 04:19:50;;;;;;;9.30;5.97;;;;;;;32.66;42.30;99773.06;1763760;80;21444;-57
2021/06/26 04:22:17;;;;;;;8.68;5.83;;;;;;;32.71;42.20;99776.07;1763575;79;21034;-57
2021/06/26 04:24:44;;;;;;;14.18;6.45;;;;;;;32.73;41.85;99772.91;1764805;80;22036;-57
2021/06/26 04:27:11;;;;;;;11.40;6.35;;;;;;;32.66;41.15;99769.47;1735252;80;21173;-58
2021/06/26 04:29:38;;;;;;;10.68;6.92;;;;;;;32.38;42.49;99765.85;1763512;80;21505;-58
2021/06/26 04:32:07;;;;;;;10.50;5.83;;;;;;;32.26;42.87;99759.98;1765204;80;21010;-58
2021/06/26 04:34:33;;;;;;;14.98;6.37;;;;;;;32.21;42.87;99758.93;1762966;80;21037;-58
2021/06/26 04:37:01;;;;;;;13.83;6.20;;;;;;;32.16;42.57;99759.28;1763696;79;21399;-57
2021/06/26 04:39:28;;;;;;;12.90;5.92;;;;;;;31.89;43.12;99761.53;1754996;80;21171;-57
2021/06/26 04:41:55;;;;;;;8.85;6.10;;;;;;;31.89;43.12;99761.53;1763603;79;21482;-57
2021/06/26 04:44:22;;;;;;;12.15;6.55;;;;;;;31.88;43.13;99767.45;1757412;80;21000;-57
2021/06/26 04:46:49;;;;;;;9.83;6.07;;;;;;;31.86;43.39;99763.67;1765551;80;21074;-58
2021/06/26 04:49:16;;;;;;;9.43;6.70;;;;;;;31.86;44.19;99763.67;1765168;80;21512;-58
2021/06/26 04:51:43;;;;;;;8.43;6.30;;;;;;;31.99;44.47;99766.97;1765285;80;21134;-58
2021/06/26 04:54:11;;;;;;;16.87;6.62;;;;;;;32.12;44.06;99765.56;1764992;80;20920;-58
2021/06/26 04:56:37;;;;;;;15.43;5.97;;;;;;;32.24;42.51;99763.71;1766287;79;20962;-58
2021/06/26 04:59:04;;;;;;;12.63;6.45;;;;;;;32.20;43.29;99765.64;1797285;79;20907;-58
2021/06/26 05:01:31;;;;;;;10.88;6.97;;;;;;;32.23;43.12;99761.54;1791360;79;20907;-58
2021/06/26 05:03:59;;;;;;;12.50;6.28;;;;;;;32.29;42.71;99756.45;1790863;79;21150;-58
2021/06/26 05:06:26;;;;;;;;;;;;;;;32.22;42.57;99748.84;1801509;78;21512;-57
2021/06/26 05:08:53;;;;;;;10.82;6.42;;;;;;;32.17;42.61;99752.55;1799733;79;20471;-58
2021/06/26 05:11:20;;;;;;;13.03;6.25;;;;;;;32.16;42.66;99754.53;1779351;79;21152;-58
2021/06/26 05:13:48;;;;;;;14.33;6.35;;;;;;;32.12;43.08;99754.48;1801642;78;20995;-59
2021/06/26 05:16:15;;;;;;;16.50;6.47;;;;;;;32.17;43.68;99751.16;1802894;79;21814;-58
2021/06/26 05:18:43;;;;;;;12.30;6.80;;;;;;;32.32;43.33;99745.98;1796534;79;20939;-58
2021/06/26 05:21:12;;;;;;;12.80;6.20;;;;;;;32.40;42.43;99746.25;1797150;78;21379;-58
2021/06/26 05:23:40;;;;;;;11.88;6.03;;;;;;;32.39;42.31;99746.05;1797313;79;20919;-58
2021/06/26 05:26:09;;;;;;;;;;;;;;;32.41;42.25;99744.28;1801371;79;20978;-58
2021/06/26 05:28:37;;;;;;;10.45;6.47;;;;;;;32.37;42.01;99739.29;1797016;79;21167;-58
2021/06/26 05:31:04;;;;;;;10.08;6.20;;;;;;;32.33;42.32;99734.30;1795445;79;21409;-58
2021/06/26 05:33:31;;;;;;;16.70;6.35;;;;;;;32.45;42.70;99734.00;1780613;79;21100;-58
2021/06/26 05:35:58;;;;;;;8.87;6.03;;;;;;;32.58;42.42;99740.88;1798032;79;20943;-57
2021/06/26 05:38:25;;;;;;;10.97;6.63;;;;;;;32.65;41.74;99741.52;1798001;79;21495;-59
2021/06/26 05:40:53;;;;;;;14.07;6.92;;;;;;;32.63;41.61;99742.50;1795958;79;21653;-58
2021/06/26 05:43:20;;;;;;;13.40;7.25;;;;;;;32.69;42.18;99750.70;1797539;79;21462;-58
2021/06/26 05:45:48;;;;;;;12.15;7.08;;;;;;;32.80;41.89;99749.39;1796944;79;20966;-58
2021/06/26 05:48:17;;;;;;;10.80;6.90;;;;;;;32.93;42.09;99746.52;1797226;79;20928;-57
2021/06/26 05:50:44;;;;;;;14.98;6.53;;;;;;;33.03;41.35;99738.67;1797879;78;20998;-58
2021/06/26 05:53:11;;;;;;;8.45;6.55;;;;;;;33.05;41.58;99738.47;1797907;79;21787;-58
2021/06/26 05:55:39;;;;;;;12.43;7.70;;;;;;;33.17;41.60;99740.94;1795317;79;20919;-57
2021/06/26 05:58:06;;;;;;;10.35;6.30;;;;;;;33.29;41.29;99742.63;1788833;79;20962;-57
2021/06/26 06:00:35;;;;;;;8.37;6.53;;;;;;;33.41;41.00;99740.69;1787381;79;20904;-57
2021/06/26 06:03:02;;;;;;;14.03;6.40;;;;;;;33.44;41.18;99742.72;1786459;79;20896;-58
2021/06/26 06:05:30;;;;;;;13.48;6.20;;;;;;;33.52;41.01;99750.69;1787774;79;21510;-58
2021/06/26 06:07:57;;;;;;;8.67;6.27;;;;;;;33.62;41.12;99758.85;1786152;79;20936;-57
2021/06/26 06:10:25;;;;;;;8.35;6.40;;;;;;;33.71;40.84;99756.50;1787445;79;21046;-57
2021/06/26 06:12:52;;;;;;;8.60;5.92;;;;;;;33.78;40.44;99765.50;1784627;79;20924;-58
2021/06/26 06:15:21;;;;;;;10.15;6.28;;;;;;;33.82;40.15;99768.28;1786542;79;20880;-58
2021/06/26 06:17:49;;;;;;;;;;;;;;;33.80;40.26;99768.67;1790508;79;21207;-58
2021/06/26 06:20:16;;;;;;;9.05;5.78;;;;;;;33.80;40.91;99756.77;1791412;79;20204;-58
2021/06/26 06:22:43;;;;;;;9.90;6.53;;;;;;;33.77;40.45;99756.95;1787581;79;20844;-58
2021/06/26 06:25:12;;;;;;;13.05;5.97;;;;;;;33.65;40.15;99755.30;1786724;79;20959;-58
2021/06/26 06:27:41;;;;;;;13.62;6.37;;;;;;;33.55;40.88;99753.86;1789773;79;20927;-58
2021/06/26 06:30:09;;;;;;;12.23;6.22;;;;;;;33.55;41.06;99748.31;1787181;79;21133;-57
2021/06/26 06:32:36;;;;;;;11.20;5.90;;;;;;;33.57;40.29;99748.13;1790768;79;21549;-58
2021/06/26 06:35:05;;;;;;;12.37;6.00;;;;;;;33.54;41.12;99755.86;1783859;79;20942;-58
2021/06/26 06:37:32;;;;;;;11.22;6.25;;;;;;;33.56;40.66;99757.64;1789166;79;21620;-58
2021/06/26 06:39:59;;;;;;;7.95;5.60;;;;;;;33.60;41.28;99760.42;1787302;79;21028;-58
2021/06/26 06:42:26;;;;;;;11.00;5.87;;;;;;;33.66;40.46;99765.83;1787838;79;21944;-57
2021/06/26 06:44:53;;;;;;;8.37;5.70;;;;;;;33.60;40.13;99759.84;1784673;79;20959;-58
2021/06/26 06:47:20;;;;;;;8.88;6.53;;;;;;;33.56;40.66;99764.59;1786123;79;20955;-58
2021/06/26 06:49:47;;;;;;;6.90;5.90;;;;;;;33.57;40.49;99766.76;1787065;79;20970;-58
2021/06/26 06:52:14;;;;;;;10.98;6.10;;;;;;;33.51;40.76;99753.83;1788674;79;21031;-59
2021/06/26 06:54:41;;;;;;;12.60;6.53;;;;;;;33.45;40.28;99752.05;1786841;79;21170;-58
2021/06/26 06:57:08;;;;;;;11.80;6.13;;;;;;;33.33;40.65;99759.30;1778204;79;21020;-58
2021/06/26 06:59:35;;;;;;;11.40;5.70;;;;;;;33.18;40.98;99754.22;1784085;79;20978;-58
2021/06/26 07:02:03;;;;;;;9.65;5.80;;;;;;;33.07;41.48;99758.33;1788043;79;21461;-59
2021/06/26 07:04:30;;;;;;;11.43;5.80;;;;;;;32.99;41.73;99754.68;1791882;79;20976;-58
2021/06/26 07:06:59;;;;;;;15.70;6.28;;;;;;;32.93;42.16;99751.28;1786722;79;21117;-58
2021/06/26 07:09:27;;;;;;;9.38;6.10;;;;;;;32.84;41.96;99744.67;1762899;79;20998;-58
2021/06/26 07:11:55;;;;;;;14.45;6.08;;;;;;;32.83;42.39;99748.05;1786756;79;20935;-58
2021/06/26 07:14:22;;;;;;;11.10;5.95;;;;;;;32.88;42.72;99746.89;1787642;79;20955;-58
2021/06/26 07:16:51;;;;;;;14.58;5.83;;;;;;;32.94;42.62;99739.79;1787876;79;20904;-57
2021/06/26 07:19:18;;;;;;;13.83;6.03;;;;;;;33.05;42.61;99737.69;1787926;79;21190;-57
2021/06/26 07:21:46;;;;;;;11.33;6.08;;;;;;;33.18;41.90;99730.02;1787276;79;20952;-59
2021/06/26 07:24:13;;;;;;;11.65;5.95;;;;;;;33.31;41.67;99733.91;1759609;79;20940;-58
2021/06/26 07:26:41;;;;;;;11.55;5.75;;;;;;;33.38;41.33;99728.40;1787957;79;20991;-59
2021/06/26 07:29:08;;;;;;;11.53;5.70;;;;;;;33.42;41.77;99726.44;1790641;79;20987;-57
2021/06/26 07:31:36;;;;;;;10.08;6.03;;;;;;;33.53;42.60;99724.48;1788367;79;21158;-58
2021/06/26 07:34:04;;;;;;;12.17;5.70;;;;;;;33.68;41.99;99725.94;1784978;79;20884;-58
2021/06/26 07:36:32;;;;;;;13.55;5.60;;;;;;;33.79;41.18;99725.42;1786664;79;21018;-58
2021/06/26 07:39:01;;;;;;;9.18;5.80;;;;;;;33.85;41.17;99721.67;1785488;79;20924;-58
2021/06/26 07:41:27;;;;;;;9.48;5.65;;;;;;;33.88;41.25;99720.89;1786960;79;21521;-58
2021/06/26 07:43:55;;;;;;;16.45;5.70;;;;;;;33.93;40.85;99714.94;1787573;79;21173;-58
2021/06/26 07:46:22;;;;;;;11.43;4.87;;;;;;;33.91;40.73;99716.50;1788287;79;21422;-58
2021/06/26 07:48:49;;;;;;;10.95;5.62;;;;;;;33.91;41.42;99717.32;1764244;79;21034;-58
2021/06/26 07:51:16;;;;;;;10.70;6.15;;;;;;;33.97;40.28;99716.34;1787006;79;21018;-58
2021/06/26 07:53:43;;;;;;;9.75;5.72;;;;;;;33.88;40.89;99713.34;1764302;79;21505;-58
2021/06/26 07:56:10;;;;;;;14.47;5.67;;;;;;;33.80;41.46;99709.54;1789405;79;21148;-57
2021/06/26 07:58:37;;;;;;;13.72;6.10;;;;;;;33.83;41.64;99708.14;1787159;79;21458;-58
2021/06/26 08:01:05;;;;;;;12.07;5.60;;;;;;;33.92;41.61;99719.50;1790599;79;24536;-58
2021/06/26 08:03:32;;;;;;;11.03;5.47;;;;;;;34.00;41.67;99719.13;1784063;79;21007;-58
2021/06/26 08:05:59;;;;;;;9.85;5.03;;;;;;;34.13;40.66;99713.18;1787904;79;20932;-58
2021/06/26 08:08:28;;;;;;;9.70;5.10;;;;;;;34.10;40.78;99712.00;1787260;79;21172;-58
2021/06/26 08:10:55;;;;;;;;;;;;;;;34.05;40.78;99702.07;1786976;79;20991;-58
2021/06/26 08:13:24;;;;;;;9.25;5.40;;;;;;;33.94;41.36;99695.69;1786479;79;24630;-58
2021/06/26 08:15:51;;;;;;;11.60;5.70;;;;;;;33.92;41.39;99697.27;1788642;79;21003;-58
2021/06/26 08:18:18;;;;;;;10.13;5.08;;;;;;;33.84;41.07;99693.08;1787177;79;20892;-58
2021/06/26 08:20:45;;;;;;;12.40;5.70;;;;;;;33.79;41.49;99695.44;1786885;79;21165;-58
2021/06/26 08:23:12;;;;;;;6.15;4.47;;;;;;;33.82;42.09;99689.91;1787669;79;20975;-58
2021/06/26 08:25:39;;;;;;;17.73;5.70;;;;;;;33.90;41.57;99688.53;1787952;79;21023;-59
2021/06/26 08:28:07;;;;;;;10.40;4.93;;;;;;;33.92;41.11;99687.53;1785526;79;20899;-59
2021/06/26 08:30:34;;;;;;;7.47;4.85;;;;;;;33.91;41.27;99686.75;1788150;79;21016;-58
2021/06/26 08:33:01;;;;;;;12.37;5.30;;;;;;;33.94;41.83;99685.14;1785381;79;21145;-58
2021/06/26 08:35:28;;;;;;;13.13;5.55;;;;;;;33.99;42.06;99684.77;1786788;79;20979;-58
2021/06/26 08:37:55;;;;;;;9.23;5.77;;;;;;;34.05;41.72;99690.14;1787050;79;20852;-58
2021/06/26 08:40:22;;;;;;;14.13;5.97;;;;;;;34.15;41.87;99684.41;1787808;79;20936;-58
2021/06/26 08:42:53;;;;;;;17.95;5.30;;;;;;;34.14;41.46;99675.25;1786662;79;20975;-57
2021/06/26 08:45:20;;;;;;;11.80;5.33;;;;;;;34.07;41.63;99671.67;1784864;79;21334;-57
2021/06/26 08:47:49;;;;;;;11.48;4.65;;;;;;;34.06;42.52;99672.28;1787977;79;20975;-58
2021/06/26 08:50:17;;;;;;;9.75;5.05;;;;;;;34.12;42.16;99670.69;1786298;79;21505;-58
2021/06/26 08:52:44;;;;;;;10.28;5.20;;;;;;;34.17;42.24;99661.16;1788695;79;20936;-57
2021/06/26 08:55:12;;;;;;;10.90;4.73;;;;;;;34.19;41.97;99662.36;1791603;79;20952;-57
2021/06/26 08:57:40;;;;;;;8.83;4.97;;;;;;;34.22;41.60;99656.00;1788157;79;21363;-58
2021/06/26 09:00:25;;;;;;;10.50;5.12;;;;;;;34.20;42.04;99657.58;1778976;79;21066;-58
2021/06/26 09:03:12;;;;;;;12.88;4.90;;;;;;;34.25;41.96;99650.83;1780651;79;20980;-58
2021/06/26 09:05:39;;;;;;;7.75;4.85;;;;;;;34.26;41.68;99645.48;1778967;79;21517;-58
2021/06/26 09:08:15;;;;;;;6.78;4.15;;;;;;;34.16;41.20;99647.08;1782958;79;21565;-57
2021/06/26 09:10:44;;;;;;;9.45;5.28;;;;;;;34.01;41.02;99632.34;1780296;79;21494;-58
2021/06/26 09:13:24;;;;;;;8.58;4.55;;;;;;;33.86;41.57;99633.74;1784678;79;21498;-57
2021/06/26 09:16:11;;;;;;;7.60;4.50;;;;;;;33.84;41.92;99633.93;1780795;79;21473;-58
2021/06/26 09:18:45;;;;;;;11.43;4.17;;;;;;;33.83;41.65;99628.16;1781558;79;20952;-58
2021/06/26 09:21:37;;;;;;;7.65;4.60;;;;;;;33.68;42.42;99637.04;1780368;79;21511;-58
2021/06/26 09:24:08;;;;;;;11.12;3.92;;;;;;;33.66;42.75;99634.66;1778809;79;25183;-58
2021/06/26 09:26:45;;;;;;;8.93;4.30;;;;;;;33.71;43.47;99618.97;1783173;79;21403;-58
2021/06/26 09:29:15;;;;;;;9.13;4.17;;;;;;;33.80;42.19;99613.67;1780262;79;21024;-58
2021/06/26 09:32:02;;;;;;;11.12;4.30;;;;;;;33.83;41.22;99610.10;1781719;79;20956;-58
2021/06/26 09:34:42;;;;;;;12.73;4.28;;;;;;;33.77;41.77;99614.47;1776345;79;21600;-57
2021/06/26 09:37:11;;;;;;;12.15;4.58;;;;;;;33.79;42.53;99606.52;1779227;79;21173;-57
2021/06/26 09:39:41;;;;;;;10.72;4.00;;;;;;;33.83;42.42;99601.77;1780075;79;20925;-58
2021/06/26 09:42:22;;;;;;;13.85;4.58;;;;;;;33.86;41.84;99605.95;1763657;79;20990;-58
2021/06/26 09:45:00;;;;;;;9.18;4.10;;;;;;;33.81;41.68;99612.49;1779212;79;20952;-58
2021/06/26 09:47:44;;;;;;;11.22;4.35;;;;;;;33.72;42.65;99610.06;1780825;79;21028;-58
2021/06/26 09:50:23;;;;;;;8.55;4.42;;;;;;;33.75;43.41;99612.08;1778946;79;21851;-58
2021/06/26 09:52:57;;;;;;;12.98;4.72;;;;;;;33.74;42.25;99606.31;1764210;79;22037;-58
2021/06/26 09:55:31;;;;;;;8.20;4.40;;;;;;;33.71;42.71;99609.85;1777584;79;20892;-58
2021/06/26 09:58:02;;;;;;;11.73;4.55;;;;;;;33.72;42.38;99615.62;1782383;79;20968;-58
2021/06/26 10:00:30;;;;;;;9.33;4.37;;;;;;;33.71;42.83;99609.85;1734099;80;20983;-58
2021/06/26 10:02:57;;;;;;;11.73;4.15;;;;;;;33.75;42.26;99612.08;1786356;79;21131;-58
2021/06/26 10:05:24;;;;;;;10.38;4.25;;;;;;;33.79;42.65;99610.11;1779805;79;21446;-58
2021/06/26 10:07:52;;;;;;;11.97;4.90;;;;;;;33.87;42.40;99615.86;1778426;79;21533;-58
2021/06/26 10:10:22;;;;;;;11.38;4.80;;;;;;;33.92;42.60;99611.89;1784813;79;21478;-58
2021/06/26 10:12:51;;;;;;;13.43;4.80;;;;;;;33.96;42.18;99607.74;1774582;79;21525;-58
2021/06/26 10:15:22;;;;;;;12.37;4.62;;;;;;;33.95;42.21;99608.92;1779223;79;20948;-58
2021/06/26 10:17:49;;;;;;;11.33;4.90;;;;;;;33.97;42.05;99605.95;1780779;79;21072;-58
2021/06/26 10:20:19;;;;;;;11.83;5.20;;;;;;;33.98;42.27;99605.35;1780178;79;20994;-58
2021/06/26 10:22:55;;;;;;;8.45;4.87;;;;;;;33.98;42.27;99601.18;1782263;79;20864;-58
2021/06/26 10:25:25;;;;;;;10.72;5.05;;;;;;;33.93;41.61;99600.20;1782753;79;20935;-58
2021/06/26 10:28:13;;;;;;;11.30;4.58;;;;;;;33.86;41.66;99596.23;1774884;79;21796;-58
2021/06/26 10:30:40;;;;;;;9.05;4.42;;;;;;;33.84;42.29;99592.25;1779540;79;21044;-58
2021/06/26 10:33:10;;;;;;;13.15;4.25;;;;;;;33.86;41.87;99596.23;1780875;79;20943;-58
2021/06/26 10:35:39;;;;;;;11.65;5.00;;;;;;;33.78;42.36;99597.39;1780493;79;21028;-58
2021/06/26 10:38:09;;;;;;;7.25;4.15;;;;;;;33.74;42.90;99599.38;1780727;79;21459;-58
2021/06/26 10:40:49;;;;;;;11.43;4.55;;;;;;;33.73;41.63;99599.73;1778841;79;21157;-58
2021/06/26 10:43:28;;;;;;;8.83;4.72;;;;;;;33.65;42.30;99592.77;1780574;79;20964;-58
2021/06/26 10:46:10;;;;;;;10.38;4.85;;;;;;;33.66;42.46;99597.15;1783028;79;20861;-58
2021/06/26 10:48:38;;;;;;;8.83;4.92;;;;;;;33.73;42.77;99591.41;1778561;79;21528;-58
2021/06/26 10:51:06;;;;;;;8.65;6.17;;;;;;;33.79;42.74;99594.83;1780227;79;20951;-58
2021/06/26 10:53:40;;;;;;;12.10;4.60;;;;;;;33.90;42.66;99597.61;1783917;79;21792;-58
2021/06/26 10:56:12;;;;;;;12.90;4.40;;;;;;;34.00;42.38;99596.03;1781236;79;20917;-56
2021/06/26 10:58:45;;;;;;;8.40;4.62;;;;;;;34.08;42.29;99594.83;1783741;79;21498;-57
2021/06/26 11:01:19;;;;;;;13.55;4.50;;;;;;;34.16;41.92;99595.64;1786847;79;20860;-57
2021/06/26 11:03:50;;;;;;;16.40;5.15;;;;;;;34.13;41.72;99597.80;1789843;79;21931;-58
2021/06/26 11:06:21;;;;;;;13.25;5.10;;;;;;;33.96;41.82;99594.63;1784567;79;21093;-58
2021/06/26 11:09:00;;;;;;;7.60;4.80;;;;;;;33.75;42.25;99594.02;1788189;79;21502;-58
2021/06/26 11:11:34;;;;;;;10.68;4.85;;;;;;;33.58;42.52;99584.42;1788458;79;21034;-57
2021/06/26 11:14:24;;;;;;;11.43;4.60;;;;;;;33.37;42.81;99593.50;1790284;79;20995;-58
2021/06/26 11:16:56;;;;;;;13.75;4.50;;;;;;;33.26;42.94;99586.54;1791299;79;20963;-58
2021/06/26 11:19:31;;;;;;;8.48;4.90;;;;;;;33.25;43.06;99590.49;1792102;79;21117;-58
2021/06/26 11:21:58;;;;;;;15.58;4.35;;;;;;;33.25;42.94;99586.94;1787417;79;21004;-58
2021/06/26 11:24:39;;;;;;;13.28;4.50;;;;;;;33.26;42.66;99584.34;1787891;79;21489;-58
2021/06/26 11:27:08;;;;;;;8.50;4.42;;;;;;;33.29;43.18;99586.33;1791596;79;21026;-58
2021/06/26 11:29:38;;;;;;;18.25;4.90;;;;;;;33.34;43.63;99588.14;1789843;79;20837;-58
2021/06/26 11:32:22;;;;;;;8.90;4.72;;;;;;;33.35;43.22;99583.39;1787261;79;22034;-58
2021/06/26 11:34:55;;;;;;;10.60;4.87;;;;;;;33.35;42.68;99586.17;1788525;79;20987;-59
2021/06/26 11:37:23;;;;;;;9.40;4.12;;;;;;;33.26;42.50;99592.67;1786939;79;20924;-57